Time;durP1;ratioP1;P1;durP2;ratioP2;P2;SDS_P1;SDS_P2;PMS_P1;PMS_P2;Temp;Humidity;BMP_temperature;BMP_pressure;BME280_temperature;BME280_humidity;BME280_pressure;Samples;Min_cycle;Max_cycle;Signal;HPM_P1;HPM_P2
2021/12/29 00:00:21;;;;;;;;;;;-5.60;99.90;;;;;;5071478;28;20225;-71
2021/12/29 00:02:47;;;;;;;;;;;-5.20;99.90;;;;;;5053123;28;19953;-71
2021/12/29 00:05:13;;;;;;;;;;;-5.60;99.90;;;;;;5052695;28;20280;-70
2021/12/29 00:07:39;;;;;;;;;;;-5.60;99.90;;;;;;5071112;28;19904;-71
2021/12/29 00:10:05;;;;;;;;;;;-5.60;99.90;;;;;;5070952;28;19913;-70
2021/12/29 00:12:34;;;;;;;;;;;-5.60;99.90;;;;;;5071201;28;19915;-71
2021/12/29 00:15:00;;;;;;;;;;;-5.60;99.90;;;;;;5071399;28;20068;-70
2021/12/29 00:17:26;;;;;;;;;;;-5.60;99.90;;;;;;5053086;28;20003;-70
2021/12/29 00:19:51;;;;;;;;;;;-5.60;99.90;;;;;;5054981;28;19908;-72
2021/12/29 00:22:17;;;;;;;;;;;-5.70;99.90;;;;;;5033180;28;19975;-72
2021/12/29 00:24:43;;;;;;;;;;;-5.70;99.90;;;;;;5048364;28;20044;-71
2021/12/29 00:27:10;;;;;;;;;;;-5.70;99.90;;;;;;5070389;28;19915;-70
2021/12/29 00:29:35;;;;;;;;;;;-5.80;99.90;;;;;;5052676;28;20345;-70
2021/12/29 00:32:01;;;;;;;;;;;-5.70;99.90;;;;;;5052877;28;19955;-70
2021/12/29 00:34:26;;;;;;;;;;;-5.80;99.90;;;;;;5070587;28;20405;-69
2021/12/29 00:36:52;;;;;;;;;;;-5.90;99.90;;;;;;5070358;28;20002;-70
2021/12/29 00:39:18;;;;;;;;;;;-5.90;99.90;;;;;;5070654;28;19912;-71
2021/12/29 00:41:43;;;;;;;;;;;-5.90;99.90;;;;;;5052575;28;19920;-69
2021/12/29 00:44:09;;;;;;;;;;;-5.90;99.90;;;;;;5070864;28;20344;-72
2021/12/29 00:46:38;;;;;;;;;;;-7.00;99.90;;;;;;5070105;28;19915;-70
2021/12/29 00:49:04;;;;;;;;;;;-5.80;99.90;;;;;;5070594;28;19908;-70
2021/12/29 00:51:30;;;;;;;;;;;-5.90;99.90;;;;;;5070483;28;19970;-69
2021/12/29 00:53:56;;;;;;;;;;;-5.90;99.90;;;;;;5070654;28;19917;-70
2021/12/29 00:56:21;;;;;;;;;;;-5.80;99.90;;;;;;5070559;28;20348;-71
2021/12/29 00:58:47;;;;;;;;;;;-5.70;99.90;;;;;;5070705;28;19916;-71
2021/12/29 01:01:13;;;;;;;;;;;-5.80;99.90;;;;;;5070301;28;19908;-70
2021/12/29 01:03:39;;;;;;;;;;;-5.70;99.90;;;;;;5070457;28;19919;-70
2021/12/29 01:06:05;;;;;;;;;;;-5.70;99.90;;;;;;5052039;28;20368;-70
2021/12/29 01:08:30;;;;;;;;;;;-5.70;99.90;;;;;;5070534;28;19915;-70
2021/12/29 01:10:56;;;;;;;;;;;-5.70;99.90;;;;;;5070262;28;19913;-69
2021/12/29 01:13:30;;;;;;;;;;;-5.70;99.90;;;;;;5070320;28;19908;-70
2021/12/29 01:16:16;;;;;;;;;;;-5.80;99.90;;;;;;5070582;28;19909;-70
2021/12/29 01:18:45;;;;;;;;;;;-5.80;99.90;;;;;;5070692;28;20061;-71
2021/12/29 01:21:11;;;;;;;;;;;-5.80;99.90;;;;;;5070336;28;20004;-71
2021/12/29 01:23:36;;;;;;;;;;;-5.80;99.90;;;;;;5070575;28;19955;-70
2021/12/29 01:26:02;;;;;;;;;;;-5.80;99.90;;;;;;5052629;28;19913;-69
2021/12/29 01:28:27;;;;;;;;;;;-5.70;99.90;;;;;;5070051;28;20008;-72
2021/12/29 01:30:53;;;;;;;;;;;-5.70;99.90;;;;;;5051787;28;19908;-70
2021/12/29 01:33:19;;;;;;;;;;;-5.70;99.90;;;;;;5051994;28;19908;-70
2021/12/29 01:35:45;;;;;;;;;;;-5.70;99.90;;;;;;5052468;28;19909;-71
2021/12/29 01:38:10;;;;;;;;;;;-5.70;99.90;;;;;;5066853;28;20332;-71
2021/12/29 01:40:37;;;;;;;;;;;-5.70;99.90;;;;;;5043383;28;19921;-70
2021/12/29 01:43:06;;;;;;;;;;;-5.70;99.90;;;;;;5028605;28;20164;-71
2021/12/29 01:45:32;;;;;;;;;;;-5.70;99.90;;;;;;5045752;28;20012;-70
2021/12/29 01:47:59;;;;;;;;;;;-5.70;99.90;;;;;;5031901;28;19995;-70
2021/12/29 01:50:25;;;;;;;;;;;-5.60;99.90;;;;;;5033565;28;19924;-71
2021/12/29 01:52:55;;;;;;;;;;;-5.70;99.90;;;;;;5033807;28;19955;-71
2021/12/29 01:55:25;;;;;;;;;;;-5.70;99.90;;;;;;5033831;28;19917;-70
2021/12/29 01:57:51;;;;;;;;;;;-5.60;99.90;;;;;;5016276;28;19999;-71
2021/12/29 02:00:18;;;;;;;;;;;-5.60;99.90;;;;;;5033380;28;19916;-70
2021/12/29 02:02:44;;;;;;;;;;;-5.50;99.90;;;;;;5033663;28;19955;-71
2021/12/29 02:05:10;;;;;;;;;;;-5.60;99.90;;;;;;5033539;28;19940;-71
2021/12/29 02:07:35;;;;;;;;;;;-5.60;99.90;;;;;;5033376;28;19951;-70
2021/12/29 02:10:01;;;;;;;;;;;-5.70;99.90;;;;;;5032875;28;20270;-70
2021/12/29 02:12:26;;;;;;;;;;;-5.60;99.90;;;;;;5033601;28;19959;-71
2021/12/29 02:14:52;;;;;;;;;;;-5.60;99.90;;;;;;5033879;28;19913;-70
2021/12/29 02:17:18;;;;;;;;;;;-5.60;99.90;;;;;;5031900;28;19925;-71
2021/12/29 02:19:46;;;;;;;;;;;-5.60;99.90;;;;;;5032043;28;20062;-70
2021/12/29 02:22:25;;;;;;;;;;;-5.60;99.90;;;;;;5033546;28;19909;-71
2021/12/29 02:25:05;;;;;;;;;;;-5.60;99.90;;;;;;5032192;28;19916;-70
2021/12/29 02:27:30;;;;;;;;;;;-5.60;99.90;;;;;;5032877;28;19920;-71
2021/12/29 02:29:56;;;;;;;;;;;-5.60;99.90;;;;;;5033338;28;19913;-70
2021/12/29 02:32:22;;;;;;;;;;;-5.60;99.90;;;;;;5031852;28;20312;-70
2021/12/29 02:34:47;;;;;;;;;;;-5.50;99.90;;;;;;5031705;28;20273;-70
2021/12/29 02:37:19;;;;;;;;;;;-5.60;99.90;;;;;;5032981;28;19913;-71
2021/12/29 02:39:45;;;;;;;;;;;-5.50;99.90;;;;;;5032833;28;20334;-70
2021/12/29 02:42:10;;;;;;;;;;;-5.60;99.90;;;;;;5031582;28;19920;-69
2021/12/29 02:44:40;;;;;;;;;;;-5.60;99.90;;;;;;5033131;28;20377;-70
2021/12/29 02:47:06;;;;;;;;;;;-4.40;99.90;;;;;;5033066;28;19959;-70
2021/12/29 02:49:32;;;;;;;;;;;-5.50;99.90;;;;;;5030923;28;20345;-70
2021/12/29 02:51:58;;;;;;;;;;;-5.50;99.90;;;;;;5032771;28;19913;-69
2021/12/29 02:54:23;;;;;;;;;;;-5.50;99.90;;;;;;5031443;28;19913;-70
2021/12/29 02:56:52;;;;;;;;;;;-5.50;99.90;;;;;;5031328;28;20339;-70
2021/12/29 02:59:17;;;;;;;;;;;-5.60;99.90;;;;;;5030108;28;19913;-71
2021/12/29 03:01:43;;;;;;;;;;;-5.50;99.90;;;;;;5032670;28;19913;-70
2021/12/29 03:04:10;;;;;;;;;;;-5.60;99.90;;;;;;5032659;28;19909;-70
2021/12/29 03:06:35;;;;;;;;;;;-5.50;99.90;;;;;;5031094;28;19924;-70
2021/12/29 03:09:03;;;;;;;;;;;-5.60;99.90;;;;;;5032074;28;19913;-71
2021/12/29 03:11:29;;;;;;;;;;;-5.60;99.90;;;;;;5032310;28;19913;-70
2021/12/29 03:13:54;;;;;;;;;;;-5.60;99.90;;;;;;5032740;28;19920;-70
2021/12/29 03:16:20;;;;;;;;;;;-5.60;99.90;;;;;;5032217;28;20449;-71
2021/12/29 03:18:46;;;;;;;;;;;-5.70;99.90;;;;;;5032189;28;19958;-71
2021/12/29 03:21:12;;;;;;;;;;;-5.60;99.90;;;;;;5032110;28;20003;-70
2021/12/29 03:23:38;;;;;;;;;;;-5.60;99.90;;;;;;5032308;28;20423;-69
2021/12/29 03:26:06;;;;;;;;;;;-5.60;99.90;;;;;;5032278;28;19909;-70
2021/12/29 03:28:32;;;;;;;;;;;-5.60;99.90;;;;;;5031967;28;19909;-70
2021/12/29 03:30:58;;;;;;;;;;;-5.50;99.90;;;;;;5032015;28;19916;-71
2021/12/29 03:33:26;;;;;;;;;;;-5.50;99.90;;;;;;5032096;28;19909;-70
2021/12/29 03:35:54;;;;;;;;;;;-5.50;99.90;;;;;;5030702;28;20404;-71
2021/12/29 03:38:21;;;;;;;;;;;-5.50;99.90;;;;;;5026807;28;20403;-70
2021/12/29 03:40:47;;;;;;;;;;;-5.60;99.90;;;;;;5017263;28;20011;-71
2021/12/29 03:43:12;;;;;;;;;;;-5.60;99.90;;;;;;5034002;28;19953;-70
2021/12/29 03:45:42;;;;;;;;;;;-3.70;99.90;;;;;;5050487;28;19993;-71
2021/12/29 03:48:08;;;;;;;;;;;-4.70;99.90;;;;;;5049988;28;19912;-70
2021/12/29 03:50:34;;;;;;;;;;;-5.40;99.90;;;;;;5050045;28;19916;-70
2021/12/29 03:53:00;;;;;;;;;;;-5.40;99.90;;;;;;5051383;28;19913;-70
2021/12/29 03:55:25;;;;;;;;;;;-5.40;99.90;;;;;;5051469;28;19908;-70
2021/12/29 03:57:51;;;;;;;;;;;-5.40;99.90;;;;;;5051456;28;19958;-70
2021/12/29 04:00:17;;;;;;;;;;;-5.40;99.90;;;;;;5050806;28;20003;-70
2021/12/29 04:02:43;;;;;;;;;;;-5.40;99.90;;;;;;5049918;28;20382;-71
2021/12/29 04:05:09;;;;;;;;;;;-5.40;99.90;;;;;;5051137;28;19919;-70
2021/12/29 04:07:35;;;;;;;;;;;-5.40;99.90;;;;;;5051072;28;19904;-70
2021/12/29 04:10:01;;;;;;;;;;;-5.40;99.90;;;;;;5048950;28;19908;-70
2021/12/29 04:12:26;;;;;;;;;;;-5.40;99.90;;;;;;5050558;28;19913;-70
2021/12/29 04:14:52;;;;;;;;;;;-5.40;99.90;;;;;;5051540;28;19908;-70
2021/12/29 04:17:24;;;;;;;;;;;-5.40;99.90;;;;;;5050902;28;19966;-70
2021/12/29 04:22:54;;;;;;;;;;;-5.30;99.90;;;;;;4989250;28;20022;-70
2021/12/29 04:25:24;;;;;;;;;;;-5.30;99.90;;;;;;4989317;28;19996;-71
2021/12/29 04:27:53;;;;;;;;;;;-5.30;99.90;;;;;;5019359;28;19951;-71
2021/12/29 04:30:19;;;;;;;;;;;-5.50;99.90;;;;;;5050421;28;19913;-71
2021/12/29 04:32:45;;;;;;;;;;;-5.30;99.90;;;;;;5051162;28;20017;-71
2021/12/29 04:35:11;;;;;;;;;;;-5.20;99.90;;;;;;5050489;28;19971;-70
2021/12/29 04:37:36;;;;;;;;;;;-5.30;99.90;;;;;;5050119;28;19992;-70
2021/12/29 04:40:03;;;;;;;;;;;-5.30;99.90;;;;;;5046803;28;19909;-70
2021/12/29 04:42:28;;;;;;;;;;;-5.30;99.90;;;;;;5052931;28;19904;-69
2021/12/29 04:44:54;;;;;;;;;;;-5.30;99.90;;;;;;5071257;28;19931;-71
2021/12/29 04:47:27;;;;;;;;;;;-5.30;99.90;;;;;;5070731;28;19908;-70
2021/12/29 04:49:52;;;;;;;;;;;-5.30;99.90;;;;;;5052406;28;19973;-72
2021/12/29 04:52:18;;;;;;;;;;;-5.30;99.90;;;;;;5070881;28;19912;-71
2021/12/29 04:54:43;;;;;;;;;;;-5.30;99.90;;;;;;5070865;28;19969;-70
2021/12/29 04:57:12;;;;;;;;;;;-5.20;99.90;;;;;;5070501;28;20033;-71
2021/12/29 04:59:38;;;;;;;;;;;-5.20;99.90;;;;;;5070620;28;19908;-70
2021/12/29 05:02:03;;;;;;;;;;;-5.20;99.90;;;;;;5070648;28;20344;-71
2021/12/29 05:04:34;;;;;;;;;;;-5.20;99.90;;;;;;5070875;28;19966;-70
2021/12/29 05:09:45;;;;;;;;;;;-5.20;99.90;;;;;;5055304;28;19950;-70
2021/12/29 05:12:10;;;;;;;;;;;-5.20;99.90;;;;;;5050648;28;20396;-70
2021/12/29 05:14:36;;;;;;;;;;;-5.10;99.90;;;;;;5064676;28;19973;-70
2021/12/29 05:17:03;;;;;;;;;;;-5.10;99.90;;;;;;5052082;28;19917;-70
2021/12/29 05:19:29;;;;;;;;;;;-5.20;99.90;;;;;;5070037;28;19908;-71
2021/12/29 05:21:55;;;;;;;;;;;-5.20;99.90;;;;;;5071064;28;19919;-70
2021/12/29 05:24:20;;;;;;;;;;;-5.20;99.90;;;;;;5074781;28;19909;-70
2021/12/29 05:26:46;;;;;;;;;;;-5.20;99.90;;;;;;5056391;28;20349;-70
2021/12/29 05:29:11;;;;;;;;;;;-5.20;99.90;;;;;;5073792;28;19920;-70
2021/12/29 05:31:37;;;;;;;;;;;-5.20;99.90;;;;;;5074310;28;19912;-71
2021/12/29 05:34:02;;;;;;;;;;;-5.20;99.90;;;;;;5056161;28;20360;-70
2021/12/29 05:36:28;;;;;;;;;;;-5.10;99.90;;;;;;5055755;28;20007;-70
2021/12/29 05:38:55;;;;;;;;;;;-5.20;99.90;;;;;;5070940;28;19920;-71
2021/12/29 05:41:20;;;;;;;;;;;-5.10;99.90;;;;;;5040675;28;19936;-70
2021/12/29 05:43:46;;;;;;;;;;;-5.20;99.90;;;;;;5034018;28;19909;-71
2021/12/29 05:46:12;;;;;;;;;;;-5.20;99.90;;;;;;5033994;28;19913;-71
2021/12/29 05:48:37;;;;;;;;;;;-5.20;99.90;;;;;;5033765;28;19956;-71
2021/12/29 05:51:03;;;;;;;;;;;-5.10;99.90;;;;;;5033735;28;20007;-71
2021/12/29 05:53:29;;;;;;;;;;;-5.20;99.90;;;;;;5033844;28;19909;-70
2021/12/29 05:55:54;;;;;;;;;;;-5.10;99.90;;;;;;5033521;28;19932;-71
2021/12/29 05:58:20;;;;;;;;;;;-5.10;99.90;;;;;;5033304;28;19909;-71
2021/12/29 06:00:45;;;;;;;;;;;-5.20;99.90;;;;;;5033392;28;20007;-71
2021/12/29 06:03:11;;;;;;;;;;;-5.10;99.90;;;;;;5033675;28;19919;-71
2021/12/29 06:05:37;;;;;;;;;;;-5.10;99.90;;;;;;5033602;28;19913;-70
2021/12/29 06:08:03;;;;;;;;;;;-5.10;99.90;;;;;;5033366;28;19913;-70
2021/12/29 06:10:30;;;;;;;;;;;-5.10;99.90;;;;;;5031863;28;19953;-70
2021/12/29 06:12:55;;;;;;;;;;;-5.00;99.90;;;;;;5032717;28;19939;-71
2021/12/29 06:15:21;;;;;;;;;;;-5.00;99.90;;;;;;5033531;28;20004;-70
2021/12/29 06:17:47;;;;;;;;;;;-5.10;99.90;;;;;;5033148;28;19905;-70
2021/12/29 06:20:13;;;;;;;;;;;-5.10;99.90;;;;;;5032949;28;19917;-71
2021/12/29 06:22:39;;;;;;;;;;;-4.90;99.90;;;;;;5032963;28;19905;-71
2021/12/29 06:25:05;;;;;;;;;;;-5.00;99.90;;;;;;5031572;28;20296;-71
2021/12/29 06:27:31;;;;;;;;;;;-5.00;99.90;;;;;;5033042;28;19954;-70
2021/12/29 06:29:57;;;;;;;;;;;-5.00;99.90;;;;;;5033229;28;20406;-70
2021/12/29 06:32:22;;;;;;;;;;;-4.90;99.90;;;;;;5032236;28;20388;-71
2021/12/29 06:34:48;;;;;;;;;;;-4.90;99.90;;;;;;5032292;28;19913;-70
2021/12/29 06:37:15;;;;;;;;;;;-4.90;99.90;;;;;;5033195;28;19917;-71
2021/12/29 06:39:41;;;;;;;;;;;-4.80;99.90;;;;;;5016940;28;20479;-71
2021/12/29 06:42:07;;;;;;;;;;;-4.70;99.90;;;;;;5048574;28;19971;-70
2021/12/29 06:44:33;;;;;;;;;;;-4.80;99.90;;;;;;5066604;28;19997;-70
2021/12/29 06:46:59;;;;;;;;;;;-4.80;99.90;;;;;;5072557;28;19927;-70
2021/12/29 06:49:25;;;;;;;;;;;-4.80;99.90;;;;;;5072654;28;19909;-70
2021/12/29 06:51:51;;;;;;;;;;;-4.70;99.90;;;;;;5072082;28;20389;-70
2021/12/29 06:54:16;;;;;;;;;;;-4.80;99.90;;;;;;5072310;28;20009;-70
2021/12/29 06:56:42;;;;;;;;;;;-4.80;99.90;;;;;;5072388;28;20324;-71
2021/12/29 06:59:08;;;;;;;;;;;-4.80;99.90;;;;;;5072346;28;19943;-71
2021/12/29 07:01:33;;;;;;;;;;;-4.80;99.90;;;;;;5072467;28;20360;-71
2021/12/29 07:03:59;;;;;;;;;;;-4.80;99.90;;;;;;5072194;28;20307;-71
2021/12/29 07:06:24;;;;;;;;;;;-4.80;99.90;;;;;;5072065;28;19938;-71
2021/12/29 07:08:50;;;;;;;;;;;-4.80;99.90;;;;;;5054102;28;20309;-71
2021/12/29 07:11:16;;;;;;;;;;;-4.80;99.90;;;;;;5071604;28;20403;-71
2021/12/29 07:13:42;;;;;;;;;;;-4.70;99.90;;;;;;5072129;28;19912;-71
2021/12/29 07:16:08;;;;;;;;;;;-4.80;99.90;;;;;;5072236;28;19999;-70
2021/12/29 07:18:34;;;;;;;;;;;-4.30;99.90;;;;;;5033933;28;20327;-71
2021/12/29 07:20:59;;;;;;;;;;;-4.70;99.90;;;;;;5033908;28;20005;-69
2021/12/29 07:23:25;;;;;;;;;;;-4.70;99.90;;;;;;5055786;28;19991;-70
2021/12/29 07:25:52;;;;;;;;;;;-4.70;99.90;;;;;;5072200;28;19912;-70
2021/12/29 07:28:17;;;;;;;;;;;-4.70;99.90;;;;;;5053371;28;20405;-71
2021/12/29 07:30:44;;;;;;;;;;;-4.70;99.90;;;;;;5071402;28;19912;-71
2021/12/29 07:33:10;;;;;;;;;;;-4.60;99.90;;;;;;5071257;28;20341;-71
2021/12/29 07:35:35;;;;;;;;;;;-4.60;99.90;;;;;;5071860;28;19915;-71
2021/12/29 07:38:01;;;;;;;;;;;-4.70;99.90;;;;;;5068501;28;20246;-71
2021/12/29 07:40:27;;;;;;;;;;;-4.60;99.90;;;;;;5071090;28;20005;-71
2021/12/29 07:42:52;;;;;;;;;;;-4.60;99.90;;;;;;5053139;28;19912;-71
2021/12/29 07:45:19;;;;;;;;;;;-4.50;99.90;;;;;;5070997;28;19924;-71
2021/12/29 07:47:47;;;;;;;;;;;-4.50;99.90;;;;;;5071380;28;20022;-70
2021/12/29 07:50:14;;;;;;;;;;;-4.40;99.90;;;;;;5070447;28;19919;-71
2021/12/29 07:52:39;;;;;;;;;;;-4.40;99.90;;;;;;5071254;28;19998;-71
2021/12/29 07:55:05;;;;;;;;;;;-4.40;99.90;;;;;;5055845;28;20065;-70
2021/12/29 07:57:31;;;;;;;;;;;-4.30;99.90;;;;;;5069345;28;19912;-71
2021/12/29 07:59:56;;;;;;;;;;;-4.00;99.90;;;;;;5066832;28;20430;-70
2021/12/29 08:02:27;;;;;;;;;;;-4.00;99.90;;;;;;5066295;28;20303;-69
2021/12/29 08:04:53;;;;;;;;;;;-3.80;99.90;;;;;;5046182;28;19913;-69
2021/12/29 08:07:19;;;;;;;;;;;-3.70;99.90;;;;;;5069948;28;19938;-70
2021/12/29 08:09:44;;;;;;;;;;;-3.70;99.90;;;;;;5067696;28;19911;-69
2021/12/29 08:12:10;;;;;;;;;;;-3.70;99.90;;;;;;5069207;28;19968;-69
2021/12/29 08:14:35;;;;;;;;;;;-3.60;99.90;;;;;;5068155;28;19962;-69
2021/12/29 08:17:02;;;;;;;;;;;-3.70;99.90;;;;;;5069215;28;20359;-69
2021/12/29 08:19:28;;;;;;;;;;;-3.60;99.90;;;;;;5067682;28;19916;-74
2021/12/29 08:21:53;;;;;;;;;;;-3.50;99.90;;;;;;5067759;28;20332;-75
2021/12/29 08:24:19;;;;;;;;;;;-3.40;99.90;;;;;;5047781;28;19918;-73
2021/12/29 08:26:45;;;;;;;;;;;-3.60;99.90;;;;;;5058555;28;19924;-73
2021/12/29 08:29:10;;;;;;;;;;;-3.70;99.90;;;;;;5055255;28;20788;-72
2021/12/29 08:31:36;;;;;;;;;;;-3.70;99.90;;;;;;5047090;28;19950;-75
2021/12/29 08:34:02;;;;;;;;;;;-3.80;99.90;;;;;;5062509;28;19952;-75
2021/12/29 08:36:27;;;;;;;;;;;-3.70;99.90;;;;;;5061894;28;19939;-68
2021/12/29 08:38:53;;;;;;;;;;;-3.70;99.90;;;;;;5059384;28;19912;-67
2021/12/29 08:41:19;;;;;;;;;;;-3.20;99.90;;;;;;5062378;28;19971;-69
2021/12/29 08:43:46;;;;;;;;;;;-3.50;99.90;;;;;;5065303;28;19951;-69
2021/12/29 08:46:12;;;;;;;;;;;-2.80;99.90;;;;;;5063168;28;20580;-69
2021/12/29 08:48:40;;;;;;;;;;;-2.70;99.90;;;;;;5060791;28;19916;-66
2021/12/29 08:51:05;;;;;;;;;;;-2.80;99.90;;;;;;5058605;28;19916;-67
2021/12/29 08:53:31;;;;;;;;;;;-2.70;99.90;;;;;;5057182;28;19922;-68
2021/12/29 08:55:57;;;;;;;;;;;-2.70;99.90;;;;;;5058141;28;19999;-68
2021/12/29 08:58:25;;;;;;;;;;;-2.70;99.90;;;;;;5043806;28;20674;-68
2021/12/29 09:00:51;;;;;;;;;;;-2.90;99.90;;;;;;5063235;28;19926;-70
2021/12/29 09:03:16;;;;;;;;;;;-2.90;99.90;;;;;;5061030;28;19908;-67
2021/12/29 09:05:42;;;;;;;;;;;-2.90;99.90;;;;;;5059686;28;19923;-69
2021/12/29 09:08:08;;;;;;;;;;;-3.00;99.90;;;;;;5058090;28;20686;-70
2021/12/29 09:10:33;;;;;;;;;;;-2.90;99.90;;;;;;5061807;28;19935;-67
2021/12/29 09:12:59;;;;;;;;;;;-3.00;99.90;;;;;;5045148;28;19920;-66
2021/12/29 09:15:24;;;;;;;;;;;-3.10;99.90;;;;;;5058909;28;20117;-68
2021/12/29 09:17:50;;;;;;;;;;;-3.10;99.90;;;;;;5045358;28;19908;-70
2021/12/29 09:20:28;;;;;;;;;;;-3.20;99.90;;;;;;5059125;28;20596;-68
2021/12/29 09:23:04;;;;;;;;;;;-3.20;99.90;;;;;;5062122;28;19980;-71
2021/12/29 09:25:30;;;;;;;;;;;-3.20;99.90;;;;;;5059455;28;20370;-71
2021/12/29 09:27:55;;;;;;;;;;;-3.30;99.90;;;;;;5044848;28;19912;-73
2021/12/29 09:30:22;;;;;;;;;;;-3.30;99.90;;;;;;5059818;28;19930;-74
2021/12/29 09:32:48;;;;;;;;;;;-3.30;99.90;;;;;;5059922;28;19920;-69
2021/12/29 09:35:13;;;;;;;;;;;-3.30;99.90;;;;;;5060894;28;20473;-70
2021/12/29 09:37:39;;;;;;;;;;;-3.30;99.90;;;;;;5055481;28;19943;-71
2021/12/29 09:40:06;;;;;;;;;;;-3.30;99.90;;;;;;5062812;28;19920;-70
2021/12/29 09:42:31;;;;;;;;;;;-3.20;99.90;;;;;;5061794;28;20002;-70
2021/12/29 09:44:57;;;;;;;;;;;-3.20;99.90;;;;;;5042971;28;19912;-70
2021/12/29 09:47:22;;;;;;;;;;;-3.30;99.90;;;;;;5065348;28;19982;-70
2021/12/29 09:49:48;;;;;;;;;;;-3.30;99.90;;;;;;5041663;28;19912;-70
2021/12/29 09:52:14;;;;;;;;;;;-3.30;99.90;;;;;;5061356;28;19925;-70
2021/12/29 09:54:39;;;;;;;;;;;-3.30;99.90;;;;;;5061773;28;19916;-70
2021/12/29 09:57:05;;;;;;;;;;;-3.30;99.90;;;;;;5062923;28;19916;-70
2021/12/29 09:59:31;;;;;;;;;;;-3.30;99.90;;;;;;5056915;28;20264;-70
2021/12/29 10:01:57;;;;;;;;;;;-3.20;99.90;;;;;;5063886;28;20034;-71
2021/12/29 10:04:23;;;;;;;;;;;-3.20;99.90;;;;;;5055903;28;19920;-70
2021/12/29 10:06:49;;;;;;;;;;;-3.30;99.90;;;;;;5058349;28;20299;-71
2021/12/29 10:09:16;;;;;;;;;;;-3.20;99.90;;;;;;5046387;28;19916;-71
2021/12/29 10:11:42;;;;;;;;;;;-3.20;99.90;;;;;;5070271;28;19927;-72
2021/12/29 10:14:09;;;;;;;;;;;-3.30;99.90;;;;;;5064736;28;20399;-71
2021/12/29 10:16:35;;;;;;;;;;;-3.30;99.90;;;;;;5060040;28;19947;-72
2021/12/29 10:19:02;;;;;;;;;;;-3.20;99.90;;;;;;5047757;28;20320;-71
2021/12/29 10:21:28;;;;;;;;;;;-3.30;99.90;;;;;;5063700;28;20045;-71
2021/12/29 10:23:54;;;;;;;;;;;-3.40;99.90;;;;;;5066347;28;20040;-69
2021/12/29 10:26:27;;;;;;;;;;;-3.30;99.90;;;;;;5064375;28;20604;-71
2021/12/29 10:29:00;;;;;;;;;;;-3.30;99.90;;;;;;5059835;28;19912;-70
2021/12/29 10:31:40;;;;;;;;;;;-3.30;99.90;;;;;;5059648;28;19973;-70
2021/12/29 10:34:08;;;;;;;;;;;-3.20;99.90;;;;;;5061915;28;19963;-70
2021/12/29 10:36:37;;;;;;;;;;;-3.30;99.90;;;;;;5045749;28;19916;-71
2021/12/29 10:39:05;;;;;;;;;;;-3.20;99.90;;;;;;5055161;28;20256;-71
2021/12/29 10:41:32;;;;;;;;;;;-3.30;99.90;;;;;;5064416;28;19933;-69
2021/12/29 10:43:59;;;;;;;;;;;-3.20;99.90;;;;;;5049722;28;19915;-71
2021/12/29 10:46:26;;;;;;;;;;;-3.20;99.90;;;;;;5041771;28;19921;-70
2021/12/29 10:48:53;;;;;;;;;;;-3.20;99.90;;;;;;5047994;28;20011;-69
2021/12/29 10:51:19;;;;;;;;;;;-3.20;99.90;;;;;;5063329;28;19966;-71
2021/12/29 10:53:45;;;;;;;;;;;-3.30;99.90;;;;;;5065064;28;19916;-72
2021/12/29 10:56:20;;;;;;;;;;;-3.20;99.90;;;;;;5064741;28;19920;-74
2021/12/29 10:58:46;;;;;;;;;;;-3.20;99.90;;;;;;5063172;28;20344;-70
2021/12/29 11:01:12;;;;;;;;;;;-3.20;99.90;;;;;;5059388;28;19916;-72
2021/12/29 11:03:46;;;;;;;;;;;-3.20;99.90;;;;;;5062239;28;19924;-71
2021/12/29 11:06:13;;;;;;;;;;;-3.20;99.90;;;;;;5038596;28;19920;-70
2021/12/29 11:08:55;;;;;;;;;;;-3.10;99.90;;;;;;5060423;28;20379;-69
2021/12/29 11:11:50;;;;;;;;;;;-3.10;99.90;;;;;;5060755;28;19916;-68
2021/12/29 11:14:18;;;;;;;;;;;-3.20;99.90;;;;;;5046673;28;21292;-69
2021/12/29 11:16:44;;;;;;;;;;;-3.20;99.90;;;;;;5043047;28;19934;-69
2021/12/29 11:19:10;;;;;;;;;;;-3.20;99.90;;;;;;5061370;28;19982;-69
2021/12/29 11:21:40;;;;;;;;;;;-3.20;99.90;;;;;;5059977;28;19928;-68
2021/12/29 11:24:13;;;;;;;;;;;-3.10;99.90;;;;;;5060981;28;19909;-70
2021/12/29 11:26:39;;;;;;;;;;;-3.20;99.90;;;;;;5056900;28;19938;-70
2021/12/29 11:29:07;;;;;;;;;;;-3.20;99.90;;;;;;5065784;28;20379;-71
2021/12/29 11:31:34;;;;;;;;;;;-3.20;99.90;;;;;;5072602;28;19920;-69
2021/12/29 11:34:10;;;;;;;;;;;-3.30;99.90;;;;;;5067890;28;20019;-68
2021/12/29 11:36:36;;;;;;;;;;;-3.30;99.90;;;;;;5046999;28;19920;-66
2021/12/29 11:39:02;;;;;;;;;;;-3.30;99.90;;;;;;5068121;28;20154;-68
2021/12/29 11:41:27;;;;;;;;;;;-3.30;99.90;;;;;;5067533;28;19939;-71
2021/12/29 11:43:54;;;;;;;;;;;-3.20;99.90;;;;;;5067414;28;19991;-70
2021/12/29 11:46:24;;;;;;;;;;;-3.20;99.90;;;;;;5044218;28;19917;-71
2021/12/29 11:48:53;;;;;;;;;;;-3.20;99.90;;;;;;5050775;28;20348;-71
2021/12/29 11:51:27;;;;;;;;;;;-3.30;99.90;;;;;;5065020;28;19912;-70
2021/12/29 11:53:57;;;;;;;;;;;-3.30;99.90;;;;;;5064553;28;20327;-70
2021/12/29 11:56:23;;;;;;;;;;;-3.30;99.90;;;;;;5060797;28;20418;-71
2021/12/29 11:58:50;;;;;;;;;;;-3.30;99.90;;;;;;5065818;28;19916;-73
2021/12/29 12:01:23;;;;;;;;;;;-3.30;99.90;;;;;;5063297;28;19921;-71
2021/12/29 12:03:57;;;;;;;;;;;-3.30;99.90;;;;;;5054207;28;19912;-70
2021/12/29 12:06:23;;;;;;;;;;;-3.30;99.90;;;;;;5059377;28;19956;-69
2021/12/29 12:08:48;;;;;;;;;;;-3.30;99.90;;;;;;5060924;28;19963;-70
2021/12/29 12:11:25;;;;;;;;;;;-3.30;99.90;;;;;;5057500;28;19916;-68
2021/12/29 12:13:50;;;;;;;;;;;-3.30;99.90;;;;;;5062451;28;20003;-70
2021/12/29 12:16:16;;;;;;;;;;;-3.10;99.90;;;;;;5063296;28;20023;-70
2021/12/29 12:19:00;;;;;;;;;;;-3.00;99.90;;;;;;5072420;28;19954;-71
2021/12/29 12:21:25;;;;;;;;;;;-3.00;99.90;;;;;;5045253;28;19919;-70
2021/12/29 12:23:52;;;;;;;;;;;-3.10;99.90;;;;;;5062674;28;19912;-68
2021/12/29 12:26:22;;;;;;;;;;;-3.10;99.90;;;;;;5060721;28;19922;-70
2021/12/29 12:28:49;;;;;;;;;;;-3.10;99.90;;;;;;5066932;28;19916;-70
2021/12/29 12:31:35;;;;;;;;;;;-3.20;99.90;;;;;;5058069;28;19920;-71
2021/12/29 12:34:11;;;;;;;;;;;-3.20;99.90;;;;;;5062717;28;19924;-70
2021/12/29 12:36:39;;;;;;;;;;;-3.20;99.90;;;;;;5047830;28;20610;-69
2021/12/29 12:39:06;;;;;;;;;;;-3.20;99.90;;;;;;5047085;28;19915;-70
2021/12/29 12:41:35;;;;;;;;;;;-3.20;99.90;;;;;;5042307;28;19929;-68
2021/12/29 12:44:03;;;;;;;;;;;-3.30;99.90;;;;;;5052761;28;19909;-71
2021/12/29 12:46:29;;;;;;;;;;;-3.30;99.90;;;;;;5044036;28;20030;-70
2021/12/29 12:48:55;;;;;;;;;;;-3.30;99.90;;;;;;5043376;28;20333;-70
2021/12/29 12:51:21;;;;;;;;;;;-3.40;99.90;;;;;;5046140;28;19920;-70
2021/12/29 12:53:47;;;;;;;;;;;-3.30;99.90;;;;;;5046060;28;19916;-69
2021/12/29 12:56:14;;;;;;;;;;;-3.20;99.90;;;;;;5043250;28;19927;-71
2021/12/29 12:58:42;;;;;;;;;;;-3.30;99.90;;;;;;5040743;28;19943;-70
2021/12/29 13:01:15;;;;;;;;;;;-3.30;99.90;;;;;;5045800;28;19913;-70
2021/12/29 13:03:41;;;;;;;;;;;-3.30;99.90;;;;;;5048367;28;19917;-69
2021/12/29 13:06:15;;;;;;;;;;;-3.30;99.90;;;;;;5044005;28;19923;-71
2021/12/29 13:08:42;;;;;;;;;;;-3.30;99.90;;;;;;5046140;28;19923;-70
2021/12/29 13:11:09;;;;;;;;;;;-3.30;99.90;;;;;;5046386;28;20027;-71
2021/12/29 13:13:36;;;;;;;;;;;-3.40;99.90;;;;;;5055428;28;19912;-71
2021/12/29 13:16:09;;;;;;;;;;;-3.30;99.90;;;;;;5042738;28;19917;-71
2021/12/29 13:18:36;;;;;;;;;;;-3.30;99.90;;;;;;5043066;28;19916;-71
2021/12/29 13:21:04;;;;;;;;;;;-3.30;99.90;;;;;;5045686;28;19916;-71
2021/12/29 13:23:30;;;;;;;;;;;-3.20;99.90;;;;;;5042918;28;20034;-71
2021/12/29 13:25:56;;;;;;;;;;;-3.20;99.90;;;;;;5040934;28;20007;-71
2021/12/29 13:28:22;;;;;;;;;;;-3.30;99.90;;;;;;5049987;28;19943;-71
2021/12/29 13:30:57;;;;;;;;;;;-3.30;99.90;;;;;;5043422;28;19912;-70
2021/12/29 13:33:25;;;;;;;;;;;-3.30;99.90;;;;;;5041497;28;19921;-71
2021/12/29 13:35:51;;;;;;;;;;;-3.30;99.90;;;;;;5043416;28;19921;-70
2021/12/29 13:38:17;;;;;;;;;;;-3.30;99.90;;;;;;5033329;28;21850;-76
2021/12/29 13:40:47;;;;;;;;;;;-3.30;99.90;;;;;;5054516;28;19944;-73
2021/12/29 13:43:15;;;;;;;;;;;-3.30;99.90;;;;;;5074296;28;20602;-75
2021/12/29 13:45:41;;;;;;;;;;;-3.20;99.90;;;;;;5067007;28;19912;-75
2021/12/29 13:48:13;;;;;;;;;;;-3.20;99.90;;;;;;5062462;28;20621;-68
2021/12/29 13:50:39;;;;;;;;;;;-3.20;99.90;;;;;;5064457;28;19920;-72
2021/12/29 13:53:05;;;;;;;;;;;-3.20;99.90;;;;;;5062736;28;19923;-72
2021/12/29 13:55:35;;;;;;;;;;;-3.20;99.90;;;;;;5066391;28;20046;-72
2021/12/29 13:58:02;;;;;;;;;;;-3.20;99.90;;;;;;5066097;28;19933;-71
2021/12/29 14:00:28;;;;;;;;;;;-3.20;99.90;;;;;;5066612;28;20356;-72
2021/12/29 14:02:54;;;;;;;;;;;-3.30;99.90;;;;;;5065920;28;19953;-73
2021/12/29 14:05:19;;;;;;;;;;;-3.30;99.90;;;;;;5071640;28;20391;-72
2021/12/29 14:07:45;;;;;;;;;;;-3.30;99.90;;;;;;5063833;28;19923;-72
2021/12/29 14:10:11;;;;;;;;;;;-3.40;99.90;;;;;;5067033;28;19920;-72
2021/12/29 14:12:37;;;;;;;;;;;-3.40;99.90;;;;;;5064828;28;19939;-73
2021/12/29 14:15:08;;;;;;;;;;;-3.50;99.90;;;;;;5065320;28;20386;-73
2021/12/29 14:17:39;;;;;;;;;;;-3.40;99.90;;;;;;5068377;28;19916;-76
2021/12/29 14:20:06;;;;;;;;;;;-3.40;99.90;;;;;;5073756;28;19912;-77